JLY1002 SBRJ-SBSP
Flight info
| Callsign | JLY1002 |
|---|---|
| Flight time | 0h 47m |
| Altitude | 26000 |
| Route | NAXOP UZ45 IBDAL |
| Aircraft | B738/M-SDE2E3FGHIRWXY/LB1 |
Departure
| Time | 2026-05-04 00:13 |
|---|---|
| Airport | Santos Dumont Airport (SBRJ) |
Arrival
| Time | 2026-05-04 01:00 |
|---|---|
| Airport | Congonhas–Deputado Freitas Nobre Airport (SBSP) |
| Time | Latitude | Longitude | Altitude | Speed | Heading |
|---|---|---|---|---|---|
| 2026-05-03 23:45 | -22.91014 | -43.16607 | 21 ft | 0 kts | 266° |
| 2026-05-04 00:01 | -22.91014 | -43.16602 | 21 ft | 2 kts | 266° |
| 2026-05-04 00:01 | -22.91012 | -43.16585 | 21 ft | 2 kts | 265° |
| 2026-05-04 00:02 | -22.91011 | -43.16567 | 21 ft | 2 kts | 263° |
| 2026-05-04 00:02 | -22.91008 | -43.16549 | 23 ft | 2 kts | 244° |
| 2026-05-04 00:02 | -22.90996 | -43.16540 | 23 ft | 1 kts | 175° |
| 2026-05-04 00:02 | -22.90993 | -43.16540 | 21 ft | 0 kts | 173° |
| 2026-05-04 00:05 | -22.91005 | -43.16539 | 22 ft | 5 kts | 175° |
| 2026-05-04 00:05 | -22.91054 | -43.16535 | 23 ft | 9 kts | 176° |
| 2026-05-04 00:05 | -22.91120 | -43.16522 | 22 ft | 10 kts | 171° |
| 2026-05-04 00:06 | -22.91186 | -43.16515 | 23 ft | 9 kts | 176° |
| 2026-05-04 00:06 | -22.91250 | -43.16511 | 21 ft | 9 kts | 176° |
| 2026-05-04 00:06 | -22.91312 | -43.16507 | 21 ft | 9 kts | 176° |
| 2026-05-04 00:06 | -22.91372 | -43.16503 | 21 ft | 9 kts | 176° |
| 2026-05-04 00:07 | -22.91425 | -43.16478 | 21 ft | 8 kts | 139° |
| 2026-05-04 00:07 | -22.91434 | -43.16470 | 21 ft | 0 kts | 138° |
| 2026-05-04 00:08 | -22.91445 | -43.16459 | 23 ft | 6 kts | 138° |
| 2026-05-04 00:08 | -22.91475 | -43.16429 | 21 ft | 0 kts | 137° |
| 2026-05-04 00:10 | -22.91478 | -43.16426 | 21 ft | 2 kts | 136° |
| 2026-05-04 00:10 | -22.91511 | -43.16392 | 20 ft | 10 kts | 136° |
| 2026-05-04 00:10 | -22.91567 | -43.16336 | 19 ft | 11 kts | 137° |
| 2026-05-04 00:11 | -22.91605 | -43.16299 | 19 ft | 11 kts | 144° |
| 2026-05-04 00:11 | -22.91638 | -43.16250 | 19 ft | 7 kts | 68° |
| 2026-05-04 00:11 | -22.91613 | -43.16244 | 19 ft | 0 kts | 354° |
| 2026-05-04 00:12 | -22.91518 | -43.16252 | 19 ft | 48 kts | 356° |
| 2026-05-04 00:13 | -22.90892 | -43.16293 | 23 ft | 129 kts | 356° |
| 2026-05-04 00:13 | -22.89837 | -43.16360 | 415 ft | 160 kts | 356° |
| 2026-05-04 00:13 | -22.88691 | -43.16274 | 1150 ft | 178 kts | 19° |
| 2026-05-04 00:13 | -22.87676 | -43.15377 | 1618 ft | 202 kts | 61° |
| 2026-05-04 00:14 | -22.87348 | -43.13869 | 2003 ft | 220 kts | 98° |
| 2026-05-04 00:14 | -22.87720 | -43.12194 | 2382 ft | 233 kts | 106° |
| 2026-05-04 00:14 | -22.88039 | -43.10432 | 2986 ft | 241 kts | 100° |
| 2026-05-04 00:14 | -22.88232 | -43.08619 | 3811 ft | 243 kts | 98° |
| 2026-05-04 00:15 | -22.88371 | -43.06785 | 4684 ft | 244 kts | 97° |
| 2026-05-04 00:15 | -22.88487 | -43.04942 | 5519 ft | 247 kts | 96° |
| 2026-05-04 00:15 | -22.88826 | -43.03086 | 6055 ft | 262 kts | 119° |
| 2026-05-04 00:15 | -22.90046 | -43.01615 | 6659 ft | 268 kts | 150° |
| 2026-05-04 00:16 | -22.91832 | -43.01058 | 7338 ft | 274 kts | 182° |
| 2026-05-04 00:16 | -22.93628 | -43.01654 | 8008 ft | 279 kts | 216° |
| 2026-05-04 00:16 | -22.94844 | -43.03267 | 8749 ft | 280 kts | 249° |
| 2026-05-04 00:16 | -22.95679 | -43.05178 | 9515 ft | 286 kts | 232° |
| 2026-05-04 00:17 | -22.97162 | -43.06650 | 10276 ft | 291 kts | 221° |
| 2026-05-04 00:17 | -22.98775 | -43.08050 | 10763 ft | 305 kts | 220° |
| 2026-05-04 00:17 | -23.00461 | -43.09526 | 11300 ft | 315 kts | 221° |
| 2026-05-04 00:17 | -23.02172 | -43.11038 | 12003 ft | 318 kts | 221° |
| 2026-05-04 00:18 | -23.03892 | -43.12571 | 12757 ft | 321 kts | 221° |
| 2026-05-04 00:18 | -23.05615 | -43.14112 | 13489 ft | 323 kts | 221° |
| 2026-05-04 00:18 | -23.07366 | -43.15673 | 14199 ft | 326 kts | 220° |
| 2026-05-04 00:18 | -23.09140 | -43.17225 | 14858 ft | 328 kts | 220° |
| 2026-05-04 00:19 | -23.10930 | -43.18779 | 15538 ft | 329 kts | 221° |
| 2026-05-04 00:19 | -23.12717 | -43.20330 | 16235 ft | 330 kts | 221° |
| 2026-05-04 00:19 | -23.14516 | -43.21892 | 16931 ft | 331 kts | 221° |
| 2026-05-04 00:19 | -23.16316 | -43.23458 | 17610 ft | 332 kts | 222° |
| 2026-05-04 00:20 | -23.18124 | -43.25032 | 18288 ft | 333 kts | 223° |
| 2026-05-04 00:20 | -23.19933 | -43.26609 | 18902 ft | 334 kts | 223° |
| 2026-05-04 00:20 | -23.21725 | -43.28171 | 19477 ft | 335 kts | 223° |
| 2026-05-04 00:20 | -23.23546 | -43.29761 | 20068 ft | 336 kts | 223° |
| 2026-05-04 00:21 | -23.25379 | -43.31360 | 20648 ft | 337 kts | 223° |
| 2026-05-04 00:21 | -23.27214 | -43.32963 | 21238 ft | 338 kts | 223° |
| 2026-05-04 00:21 | -23.29050 | -43.34566 | 21831 ft | 339 kts | 224° |
| 2026-05-04 00:21 | -23.30897 | -43.36181 | 22358 ft | 343 kts | 224° |
| 2026-05-04 00:22 | -23.32660 | -43.37952 | 22739 ft | 342 kts | 235° |
| 2026-05-04 00:22 | -23.33991 | -43.40059 | 23476 ft | 335 kts | 243° |
| 2026-05-04 00:22 | -23.35068 | -43.42288 | 24045 ft | 333 kts | 248° |
| 2026-05-04 00:22 | -23.35829 | -43.44665 | 24468 ft | 333 kts | 256° |
| 2026-05-04 00:23 | -23.36400 | -43.47125 | 24897 ft | 335 kts | 258° |
| 2026-05-04 00:23 | -23.36940 | -43.49595 | 25332 ft | 337 kts | 258° |
| 2026-05-04 00:23 | -23.37476 | -43.52080 | 25792 ft | 338 kts | 258° |
| 2026-05-04 00:23 | -23.38019 | -43.54580 | 26164 ft | 340 kts | 258° |
| 2026-05-04 00:24 | -23.38571 | -43.57108 | 26198 ft | 348 kts | 258° |
| 2026-05-04 00:24 | -23.39143 | -43.59713 | 26217 ft | 358 kts | 258° |
| 2026-05-04 00:24 | -23.39733 | -43.62385 | 26231 ft | 367 kts | 258° |
| 2026-05-04 00:24 | -23.40339 | -43.65121 | 26232 ft | 376 kts | 258° |
| 2026-05-04 00:25 | -23.40951 | -43.67875 | 26232 ft | 384 kts | 258° |
| 2026-05-04 00:25 | -23.41586 | -43.70736 | 26233 ft | 392 kts | 258° |
| 2026-05-04 00:25 | -23.42231 | -43.73640 | 26231 ft | 398 kts | 258° |
| 2026-05-04 00:25 | -23.42887 | -43.76596 | 26229 ft | 404 kts | 258° |
| 2026-05-04 00:26 | -23.43550 | -43.79590 | 26228 ft | 409 kts | 258° |
| 2026-05-04 00:26 | -23.44221 | -43.82618 | 26226 ft | 413 kts | 258° |
| 2026-05-04 00:26 | -23.44894 | -43.85658 | 26218 ft | 412 kts | 258° |
| 2026-05-04 00:26 | -23.45566 | -43.88698 | 26218 ft | 412 kts | 258° |
| 2026-05-04 00:27 | -23.46236 | -43.91734 | 26219 ft | 411 kts | 258° |
| 2026-05-04 00:27 | -23.46903 | -43.94758 | 26218 ft | 411 kts | 258° |
| 2026-05-04 00:27 | -23.47570 | -43.97785 | 26224 ft | 410 kts | 258° |
| 2026-05-04 00:27 | -23.48234 | -44.00805 | 26225 ft | 410 kts | 258° |
| 2026-05-04 00:28 | -23.48899 | -44.03830 | 26222 ft | 410 kts | 258° |
| 2026-05-04 00:28 | -23.49562 | -44.06853 | 26223 ft | 410 kts | 258° |
| 2026-05-04 00:28 | -23.50225 | -44.09874 | 26224 ft | 410 kts | 258° |
| 2026-05-04 00:28 | -23.50877 | -44.12850 | 26224 ft | 410 kts | 258° |
| 2026-05-04 00:29 | -23.51547 | -44.15910 | 26223 ft | 410 kts | 258° |
| 2026-05-04 00:29 | -23.52215 | -44.18887 | 26224 ft | 410 kts | 257° |
| 2026-05-04 00:29 | -23.52905 | -44.21897 | 26223 ft | 410 kts | 257° |
| 2026-05-04 00:29 | -23.53602 | -44.24911 | 26223 ft | 410 kts | 257° |
| 2026-05-04 00:30 | -23.54296 | -44.27918 | 26226 ft | 410 kts | 257° |
| 2026-05-04 00:30 | -23.54991 | -44.30936 | 26223 ft | 410 kts | 257° |
| 2026-05-04 00:30 | -23.55683 | -44.33949 | 26227 ft | 410 kts | 257° |
| 2026-05-04 00:30 | -23.56374 | -44.36965 | 26223 ft | 410 kts | 257° |
| 2026-05-04 00:31 | -23.57062 | -44.39979 | 26224 ft | 410 kts | 257° |
| 2026-05-04 00:31 | -23.57750 | -44.42995 | 26228 ft | 410 kts | 257° |
| 2026-05-04 00:31 | -23.58437 | -44.46010 | 26226 ft | 410 kts | 257° |
| 2026-05-04 00:31 | -23.59122 | -44.49016 | 26227 ft | 410 kts | 257° |
| 2026-05-04 00:32 | -23.59808 | -44.52035 | 26225 ft | 409 kts | 257° |
| 2026-05-04 00:32 | -23.60492 | -44.55047 | 26224 ft | 409 kts | 257° |
| 2026-05-04 00:32 | -23.61177 | -44.58063 | 26227 ft | 409 kts | 257° |
| 2026-05-04 00:32 | -23.61860 | -44.61077 | 26227 ft | 409 kts | 257° |
| 2026-05-04 00:33 | -23.62543 | -44.64089 | 26227 ft | 409 kts | 257° |
| 2026-05-04 00:33 | -23.63906 | -44.70116 | 26225 ft | 409 kts | 257° |
| 2026-05-04 00:33 | -23.64577 | -44.73087 | 26227 ft | 409 kts | 257° |
| 2026-05-04 00:34 | -23.65257 | -44.76098 | 26228 ft | 409 kts | 257° |
| 2026-05-04 00:34 | -23.65935 | -44.79107 | 26231 ft | 409 kts | 257° |
| 2026-05-04 00:34 | -23.66611 | -44.82111 | 26227 ft | 408 kts | 258° |
| 2026-05-04 00:34 | -23.67290 | -44.85126 | 26228 ft | 408 kts | 258° |
| 2026-05-04 00:35 | -23.67965 | -44.88130 | 26231 ft | 408 kts | 258° |
| 2026-05-04 00:35 | -23.68642 | -44.91143 | 26230 ft | 408 kts | 258° |
| 2026-05-04 00:35 | -23.69316 | -44.94146 | 26231 ft | 408 kts | 258° |
| 2026-05-04 00:35 | -23.69991 | -44.97159 | 26229 ft | 408 kts | 258° |
| 2026-05-04 00:36 | -23.70665 | -45.00168 | 26232 ft | 408 kts | 258° |
| 2026-05-04 00:36 | -23.71337 | -45.03171 | 26231 ft | 408 kts | 258° |
| 2026-05-04 00:36 | -23.72008 | -45.06176 | 26232 ft | 408 kts | 258° |
| 2026-05-04 00:36 | -23.72679 | -45.09179 | 26229 ft | 408 kts | 258° |
| 2026-05-04 00:37 | -23.73350 | -45.12191 | 26230 ft | 408 kts | 258° |
| 2026-05-04 00:37 | -23.74020 | -45.15195 | 26227 ft | 407 kts | 258° |
| 2026-05-04 00:37 | -23.74690 | -45.18206 | 26231 ft | 407 kts | 258° |
| 2026-05-04 00:37 | -23.75360 | -45.21214 | 26231 ft | 407 kts | 258° |
| 2026-05-04 00:38 | -23.76027 | -45.24217 | 26232 ft | 407 kts | 258° |
| 2026-05-04 00:38 | -23.76695 | -45.27218 | 26230 ft | 407 kts | 257° |
| 2026-05-04 00:38 | -23.77356 | -45.30185 | 26225 ft | 407 kts | 258° |
| 2026-05-04 00:38 | -23.78024 | -45.33184 | 26242 ft | 406 kts | 257° |
| 2026-05-04 00:39 | -23.78691 | -45.36185 | 26238 ft | 407 kts | 257° |
| 2026-05-04 00:39 | -23.79359 | -45.39195 | 26228 ft | 407 kts | 257° |
| 2026-05-04 00:39 | -23.79898 | -45.42217 | 26216 ft | 406 kts | 264° |
| 2026-05-04 00:39 | -23.80093 | -45.45287 | 26245 ft | 404 kts | 266° |
| 2026-05-04 00:40 | -23.80223 | -45.48353 | 26252 ft | 403 kts | 267° |
| 2026-05-04 00:40 | -23.80341 | -45.51422 | 26237 ft | 404 kts | 267° |
| 2026-05-04 00:40 | -23.80467 | -45.54487 | 26243 ft | 399 kts | 267° |
| 2026-05-04 00:40 | -23.80600 | -45.57458 | 26225 ft | 385 kts | 267° |
| 2026-05-04 00:41 | -23.80735 | -45.60311 | 26218 ft | 367 kts | 266° |
| 2026-05-04 00:41 | -23.80869 | -45.63050 | 25934 ft | 358 kts | 266° |
| 2026-05-04 00:41 | -23.81004 | -45.65739 | 25578 ft | 353 kts | 266° |
| 2026-05-04 00:41 | -23.81138 | -45.68403 | 25192 ft | 349 kts | 266° |
| 2026-05-04 00:42 | -23.81272 | -45.71046 | 24757 ft | 347 kts | 266° |
| 2026-05-04 00:42 | -23.81404 | -45.73670 | 24305 ft | 346 kts | 265° |
| 2026-05-04 00:42 | -23.81536 | -45.76285 | 23861 ft | 344 kts | 265° |
| 2026-05-04 00:42 | -23.81667 | -45.78893 | 23345 ft | 343 kts | 265° |
| 2026-05-04 00:43 | -23.81796 | -45.81485 | 22879 ft | 341 kts | 265° |
| 2026-05-04 00:43 | -23.81924 | -45.84056 | 22426 ft | 338 kts | 265° |
| 2026-05-04 00:43 | -23.82051 | -45.86615 | 21987 ft | 336 kts | 265° |
| 2026-05-04 00:43 | -23.82175 | -45.89122 | 21565 ft | 334 kts | 265° |
| 2026-05-04 00:44 | -23.82299 | -45.91646 | 21142 ft | 332 kts | 266° |
| 2026-05-04 00:44 | -23.82423 | -45.94159 | 20722 ft | 330 kts | 266° |
| 2026-05-04 00:44 | -23.82545 | -45.96667 | 20298 ft | 329 kts | 266° |
| 2026-05-04 00:44 | -23.82667 | -45.99162 | 19887 ft | 328 kts | 266° |
| 2026-05-04 00:45 | -23.82788 | -46.01649 | 19467 ft | 328 kts | 266° |
| 2026-05-04 00:45 | -23.82908 | -46.04134 | 19047 ft | 328 kts | 266° |
| 2026-05-04 00:45 | -23.83028 | -46.06624 | 18627 ft | 328 kts | 266° |
| 2026-05-04 00:45 | -23.83148 | -46.09111 | 18169 ft | 328 kts | 266° |
| 2026-05-04 00:46 | -23.83267 | -46.11596 | 17740 ft | 327 kts | 266° |
| 2026-05-04 00:46 | -23.83385 | -46.14071 | 17316 ft | 326 kts | 266° |
| 2026-05-04 00:46 | -23.83502 | -46.16511 | 16913 ft | 325 kts | 266° |
| 2026-05-04 00:46 | -23.83620 | -46.19002 | 16499 ft | 324 kts | 266° |
| 2026-05-04 00:47 | -23.83736 | -46.21451 | 16099 ft | 323 kts | 266° |
| 2026-05-04 00:47 | -23.83852 | -46.23899 | 15702 ft | 322 kts | 267° |
| 2026-05-04 00:47 | -23.83968 | -46.26340 | 15302 ft | 322 kts | 267° |
| 2026-05-04 00:47 | -23.84082 | -46.28756 | 14906 ft | 322 kts | 267° |
| 2026-05-04 00:48 | -23.84198 | -46.31198 | 14502 ft | 323 kts | 267° |
| 2026-05-04 00:48 | -23.84314 | -46.33652 | 14094 ft | 324 kts | 267° |
| 2026-05-04 00:48 | -23.84429 | -46.36116 | 13676 ft | 323 kts | 267° |
| 2026-05-04 00:48 | -23.84544 | -46.38561 | 13268 ft | 322 kts | 267° |
| 2026-05-04 00:49 | -23.84658 | -46.41008 | 12873 ft | 321 kts | 267° |
| 2026-05-04 00:49 | -23.84771 | -46.43442 | 12478 ft | 321 kts | 267° |
| 2026-05-04 00:49 | -23.84883 | -46.45874 | 12100 ft | 320 kts | 267° |
| 2026-05-04 00:49 | -23.84995 | -46.48295 | 11713 ft | 319 kts | 267° |
| 2026-05-04 00:50 | -23.85107 | -46.50722 | 11327 ft | 318 kts | 267° |
| 2026-05-04 00:50 | -23.85180 | -46.52315 | 11077 ft | 318 kts | 268° |
| 2026-05-04 00:50 | -23.85290 | -46.54711 | 10887 ft | 311 kts | 268° |
| 2026-05-04 00:50 | -23.85431 | -46.57809 | 10674 ft | 300 kts | 268° |
| 2026-05-04 00:51 | -23.85502 | -46.60065 | 10538 ft | 292 kts | 274° |
| 2026-05-04 00:51 | -23.84965 | -46.62150 | 10416 ft | 283 kts | 298° |
| 2026-05-04 00:51 | -23.83802 | -46.63824 | 10309 ft | 275 kts | 318° |
| 2026-05-04 00:51 | -23.82252 | -46.65033 | 10076 ft | 273 kts | 327° |
| 2026-05-04 00:52 | -23.80665 | -46.66109 | 9790 ft | 272 kts | 327° |
| 2026-05-04 00:52 | -23.79066 | -46.67195 | 9503 ft | 270 kts | 327° |
| 2026-05-04 00:52 | -23.77468 | -46.68289 | 9338 ft | 270 kts | 327° |
| 2026-05-04 00:52 | -23.75872 | -46.69388 | 9308 ft | 273 kts | 327° |
| 2026-05-04 00:53 | -23.74271 | -46.70496 | 9290 ft | 271 kts | 327° |
| 2026-05-04 00:53 | -23.72683 | -46.71597 | 9293 ft | 271 kts | 327° |
| 2026-05-04 00:53 | -23.72139 | -46.71974 | 9293 ft | 271 kts | 327° |
| 2026-05-04 00:53 | -23.71601 | -46.72348 | 9234 ft | 273 kts | 327° |
| 2026-05-04 00:54 | -23.64701 | -46.77131 | 7664 ft | 272 kts | 328° |
| 2026-05-04 00:54 | -23.63118 | -46.78228 | 7333 ft | 267 kts | 329° |
| 2026-05-04 00:55 | -23.61554 | -46.79311 | 7053 ft | 266 kts | 329° |
| 2026-05-04 00:55 | -23.59990 | -46.80395 | 6762 ft | 266 kts | 329° |
| 2026-05-04 00:55 | -23.58329 | -46.81211 | 6402 ft | 260 kts | 353° |
| 2026-05-04 00:55 | -23.56590 | -46.81067 | 6143 ft | 246 kts | 22° |
| 2026-05-04 00:56 | -23.55159 | -46.80159 | 5874 ft | 232 kts | 44° |
| 2026-05-04 00:56 | -23.54161 | -46.78861 | 5630 ft | 218 kts | 58° |
| 2026-05-04 00:56 | -23.53359 | -46.77506 | 5386 ft | 213 kts | 60° |
| 2026-05-04 00:56 | -23.52584 | -46.76161 | 5184 ft | 205 kts | 62° |
| 2026-05-04 00:57 | -23.52124 | -46.74761 | 4926 ft | 190 kts | 90° |
| 2026-05-04 00:57 | -23.52353 | -46.73427 | 4718 ft | 173 kts | 114° |
| 2026-05-04 00:57 | -23.53022 | -46.72400 | 4515 ft | 161 kts | 137° |
| 2026-05-04 00:57 | -23.53952 | -46.71724 | 4371 ft | 164 kts | 144° |
| 2026-05-04 00:58 | -23.54903 | -46.71058 | 4202 ft | 164 kts | 144° |
| 2026-05-04 00:58 | -23.55861 | -46.70384 | 4007 ft | 165 kts | 145° |
| 2026-05-04 00:58 | -23.56821 | -46.69714 | 3860 ft | 158 kts | 146° |
| 2026-05-04 00:58 | -23.57711 | -46.69097 | 3708 ft | 146 kts | 146° |
| 2026-05-04 00:59 | -23.58562 | -46.68535 | 3539 ft | 143 kts | 147° |
| 2026-05-04 00:59 | -23.59398 | -46.67941 | 3286 ft | 142 kts | 144° |
| 2026-05-04 00:59 | -23.60211 | -46.67353 | 3051 ft | 138 kts | 145° |
| 2026-05-04 00:59 | -23.61001 | -46.66803 | 2879 ft | 139 kts | 147° |
| 2026-05-04 01:00 | -23.61831 | -46.66219 | 2694 ft | 144 kts | 149° |
| 2026-05-04 01:00 | -23.62672 | -46.65645 | 2614 ft | 134 kts | 149° |
| 2026-05-04 01:00 | -23.63300 | -46.65204 | 2608 ft | 60 kts | 147° |
| 2026-05-04 01:00 | -23.63493 | -46.65156 | 2599 ft | 23 kts | 224° |
| 2026-05-04 01:01 | -23.63443 | -46.65252 | 2600 ft | 16 kts | 327° |
| 2026-05-04 01:01 | -23.63348 | -46.65318 | 2601 ft | 16 kts | 327° |
| 2026-05-04 01:01 | -23.63257 | -46.65381 | 2601 ft | 15 kts | 327° |
| 2026-05-04 01:01 | -23.63171 | -46.65442 | 2601 ft | 15 kts | 328° |
| 2026-05-04 01:02 | -23.63086 | -46.65499 | 2601 ft | 14 kts | 328° |
| 2026-05-04 01:02 | -23.63026 | -46.65518 | 2602 ft | 14 kts | 354° |
| 2026-05-04 01:02 | -23.62918 | -46.65581 | 2602 ft | 13 kts | 328° |
| 2026-05-04 01:02 | -23.62842 | -46.65633 | 2602 ft | 13 kts | 327° |
| 2026-05-04 01:03 | -23.62793 | -46.65667 | 2602 ft | 13 kts | 328° |
| 2026-05-04 01:03 | -23.62718 | -46.65718 | 2602 ft | 13 kts | 328° |
| 2026-05-04 01:03 | -23.62654 | -46.65765 | 2601 ft | 9 kts | 312° |
| 2026-05-04 01:03 | -23.62679 | -46.65830 | 2600 ft | 6 kts | 237° |
| 2026-05-04 01:04 | -23.62686 | -46.65842 | 2600 ft | 0 kts | 237° |